createdAt,value
2019-04-14T00:02:25.104Z,3.51
2019-04-14T00:04:55.068Z,3.44
2019-04-14T00:07:23.468Z,3.42
2019-04-14T00:09:52.047Z,3.46
2019-04-14T00:12:20.764Z,3.46
2019-04-14T00:14:49.154Z,3.44
2019-04-14T00:17:17.269Z,3.44
2019-04-14T00:19:45.629Z,3.43
2019-04-14T00:22:16.262Z,3.40
2019-04-14T00:24:44.574Z,3.37
2019-04-14T00:27:12.812Z,3.31
2019-04-14T00:29:41.420Z,3.30
2019-04-14T00:32:09.770Z,3.29
2019-04-14T00:35:06.122Z,3.30
2019-04-14T00:37:38.743Z,3.27
2019-04-14T00:40:23.626Z,3.26
2019-04-14T00:43:00.752Z,3.22
2019-04-14T00:45:41.626Z,3.19
2019-04-14T00:48:09.749Z,3.13
2019-04-14T00:50:34.462Z,3.12
2019-04-14T00:53:03.521Z,3.09
2019-04-14T00:55:31.471Z,3.07
2019-04-14T00:57:59.500Z,3.05
2019-04-14T01:00:27.601Z,3.03
2019-04-14T01:02:55.760Z,3.07
2019-04-14T01:05:24.449Z,3.01
2019-04-14T01:07:52.351Z,3.00
2019-04-14T01:10:19.789Z,3.00
2019-04-14T01:12:49.568Z,2.99
2019-04-14T01:15:20.020Z,2.99
2019-04-14T01:17:48.554Z,2.99
2019-04-14T01:20:16.699Z,2.98
2019-04-14T01:22:45.155Z,3.01
2019-04-14T01:25:12.887Z,2.97
2019-04-14T01:27:40.722Z,2.98
2019-04-14T01:30:09.616Z,2.99
2019-04-14T01:32:37.267Z,3.00
2019-04-14T01:35:05.351Z,2.97
2019-04-14T01:37:33.374Z,2.95
2019-04-14T01:40:03.316Z,2.97
2019-04-14T01:42:31.187Z,2.95
2019-04-14T01:44:59.277Z,3.01
2019-04-14T01:47:27.042Z,2.99
2019-04-14T01:49:55.161Z,3.00
2019-04-14T01:52:31.794Z,3.00
2019-04-14T01:55:20.139Z,2.99
2019-04-14T01:58:01.108Z,2.95
2019-04-14T02:00:56.231Z,2.97
2019-04-14T02:03:24.076Z,2.95
2019-04-14T02:05:51.804Z,2.99
2019-04-14T02:08:19.816Z,2.98
2019-04-14T02:10:48.075Z,2.94
2019-04-14T02:13:15.738Z,2.95
2019-04-14T02:15:44.324Z,2.96
2019-04-14T02:18:12.232Z,2.95
2019-04-14T02:20:40.346Z,2.92
2019-04-14T02:23:08.501Z,2.93
2019-04-14T02:25:38.118Z,2.89
2019-04-14T02:28:06.835Z,2.85
2019-04-14T02:30:41.449Z,2.83
2019-04-14T02:33:40.917Z,2.81
2019-04-14T02:36:17.962Z,2.87
2019-04-14T02:38:41.208Z,2.88
2019-04-14T02:41:02.739Z,2.89
2019-04-14T02:43:31.938Z,2.91
2019-04-14T02:50:56.051Z,2.89
2019-04-14T02:53:23.911Z,2.90
2019-04-14T02:55:58.933Z,2.87
2019-04-14T02:58:26.385Z,2.82
2019-04-14T03:00:58.517Z,2.84
2019-04-14T03:03:31.746Z,2.84
2019-04-14T03:08:25.626Z,2.84
2019-04-14T03:10:54.029Z,2.80
2019-04-14T03:15:58.801Z,2.81
2019-04-14T03:21:37.782Z,2.83
2019-04-14T03:24:15.850Z,2.83
2019-04-14T03:26:54.132Z,2.79
2019-04-14T03:29:37.019Z,2.84
2019-04-14T03:39:24.907Z,2.81
2019-04-14T03:41:56.733Z,2.78
2019-04-14T03:47:03.283Z,2.77
2019-04-14T03:49:24.597Z,2.76
2019-04-14T03:51:53.850Z,2.73
2019-04-14T03:54:15.654Z,2.69
2019-04-14T03:56:53.353Z,2.72
2019-04-14T03:59:21.852Z,2.70
2019-04-14T04:01:50.245Z,2.71
2019-04-14T04:04:18.468Z,2.72
2019-04-14T04:06:46.575Z,2.71
2019-04-14T04:09:15.071Z,2.71
2019-04-14T04:11:43.394Z,2.70
2019-04-14T04:14:11.822Z,2.70
2019-04-14T04:16:57.954Z,2.70
2019-04-14T04:19:35.986Z,2.67
2019-04-14T04:22:26.032Z,2.65
2019-04-14T04:25:01.346Z,2.65
2019-04-14T04:27:39.692Z,2.61
2019-04-14T04:30:32.592Z,2.61
2019-04-14T04:33:17.652Z,2.60
2019-04-14T04:35:50.092Z,2.60
2019-04-14T04:38:35.987Z,2.60
2019-04-14T04:41:03.816Z,2.52
2019-04-14T04:43:31.904Z,2.56
2019-04-14T04:46:00.667Z,2.56
2019-04-14T04:48:28.556Z,2.58
2019-04-14T04:50:58.602Z,2.59
2019-04-14T04:53:26.681Z,2.60
2019-04-14T04:55:54.677Z,2.64
2019-04-14T04:58:24.116Z,2.65
2019-04-14T05:00:54.162Z,2.66
2019-04-14T05:03:21.533Z,2.67
2019-04-14T05:06:09.138Z,2.73
2019-04-14T05:08:39.200Z,2.75
2019-04-14T05:11:18.693Z,2.79
2019-04-14T05:13:47.399Z,2.78
2019-04-14T05:16:15.084Z,2.84
2019-04-14T05:18:43.052Z,2.92
2019-04-14T05:21:12.736Z,2.92
2019-04-14T05:23:41.038Z,2.98
2019-04-14T05:26:09.197Z,3.00
2019-04-14T05:28:37.450Z,3.01
2019-04-14T05:31:05.516Z,3.04
2019-04-14T05:33:33.675Z,3.03
2019-04-14T05:36:02.652Z,3.04
2019-04-14T05:38:32.230Z,3.04
2019-04-14T05:41:01.051Z,3.06
2019-04-14T05:43:38.637Z,3.09
2019-04-14T05:46:01.320Z,3.16
2019-04-14T05:48:29.540Z,3.21
2019-04-14T05:50:57.743Z,3.23
2019-04-14T05:53:26.260Z,3.28
2019-04-14T05:55:54.600Z,3.35
2019-04-14T05:58:23.222Z,3.36
2019-04-14T06:00:51.796Z,3.49
2019-04-14T06:03:19.486Z,3.49
2019-04-14T06:05:47.535Z,3.48
2019-04-14T06:08:15.228Z,3.54
2019-04-14T06:10:42.815Z,3.49
2019-04-14T06:13:11.923Z,3.54
2019-04-14T06:15:39.737Z,3.63
2019-04-14T06:18:09.107Z,3.64
2019-04-14T06:20:36.848Z,3.55
2019-04-14T06:23:04.571Z,3.61
2019-04-14T06:25:32.147Z,3.65
2019-04-14T06:27:59.716Z,3.65
2019-04-14T06:30:43.203Z,3.76
2019-04-14T06:33:27.493Z,3.94
2019-04-14T06:36:17.904Z,4.14
2019-04-14T06:38:47.314Z,4.38
2019-04-14T06:41:17.698Z,4.73
2019-04-14T06:43:49.024Z,4.95
2019-04-14T06:46:15.263Z,4.97
2019-04-14T06:48:43.606Z,5.17
2019-04-14T06:51:11.511Z,5.32
2019-04-14T06:53:39.856Z,5.22
2019-04-14T06:56:07.404Z,5.51
2019-04-14T06:58:35.013Z,5.50
2019-04-14T07:01:02.693Z,5.42
2019-04-14T07:03:30.078Z,5.96
2019-04-14T07:06:00.071Z,6.12
2019-04-14T07:08:29.843Z,6.18
2019-04-14T07:10:59.893Z,6.07
2019-04-14T07:13:29.178Z,6.29
2019-04-14T07:15:56.869Z,5.84
2019-04-14T07:18:25.926Z,5.85
2019-04-14T07:20:53.635Z,5.50
2019-04-14T07:23:21.137Z,5.62
2019-04-14T07:25:49.154Z,5.74
2019-04-14T07:28:16.569Z,5.97
2019-04-14T07:31:02.918Z,6.06
2019-04-14T07:33:46.204Z,6.23
2019-04-14T07:36:40.761Z,6.23
2019-04-14T07:39:34.251Z,6.57
2019-04-14T07:42:11.117Z,6.34
2019-04-14T07:45:10.740Z,6.16
2019-04-14T07:47:44.696Z,6.48
2019-04-14T07:50:44.913Z,6.92
2019-04-14T07:53:34.951Z,7.04
2019-04-14T07:56:25.033Z,7.52
2019-04-14T07:59:03.673Z,7.03
2019-04-14T08:01:54.985Z,7.69
2019-04-14T08:04:27.485Z,7.70
2019-04-14T08:06:58.089Z,7.81
2019-04-14T08:09:26.407Z,8.14
2019-04-14T08:11:57.117Z,8.09
2019-04-14T08:14:24.637Z,7.66
2019-04-14T08:16:52.234Z,8.02
2019-04-14T08:19:20.087Z,7.30
2019-04-14T08:21:47.616Z,7.29
2019-04-14T08:24:15.979Z,7.78
2019-04-14T08:26:43.545Z,7.51
2019-04-14T08:29:11.165Z,7.60
2019-04-14T08:31:40.286Z,7.37
2019-04-14T08:34:08.291Z,8.06
2019-04-14T08:36:35.866Z,7.69
2019-04-14T08:39:05.503Z,7.67
2019-04-14T08:41:39.887Z,7.88
2019-04-14T08:44:22.447Z,8.44
2019-04-14T08:47:12.632Z,8.70
2019-04-14T08:49:57.872Z,8.86
2019-04-14T08:52:45.601Z,8.93
2019-04-14T08:55:44.415Z,8.82
2019-04-14T08:58:32.756Z,9.35
2019-04-14T09:01:28.631Z,9.28
2019-04-14T09:04:05.033Z,9.32
2019-04-14T09:06:45.269Z,10.17
2019-04-14T09:09:35.165Z,10.02
2019-04-14T09:12:16.380Z,10.04
2019-04-14T09:14:56.297Z,9.37
2019-04-14T09:17:16.468Z,10.25
2019-04-14T09:19:44.676Z,9.86
2019-04-14T09:22:12.585Z,9.39
2019-04-14T09:24:40.181Z,9.48
2019-04-14T09:27:08.600Z,9.71
2019-04-14T09:29:36.166Z,9.82
2019-04-14T09:32:06.830Z,9.06
2019-04-14T09:34:34.717Z,8.99
2019-04-14T09:37:02.200Z,9.73
2019-04-14T09:39:29.760Z,9.88
2019-04-14T09:41:57.332Z,9.93
2019-04-14T09:44:26.199Z,9.98
2019-04-14T09:46:53.767Z,9.97
2019-04-14T09:49:21.534Z,9.40
2019-04-14T09:51:50.210Z,9.79
2019-04-14T09:54:18.608Z,10.14
2019-04-14T09:56:46.188Z,9.62
2019-04-14T09:59:34.048Z,10.21
2019-04-14T10:02:02.541Z,9.89
2019-04-14T10:04:30.538Z,9.42
2019-04-14T10:06:58.372Z,9.49
2019-04-14T10:09:26.144Z,10.54
2019-04-14T10:11:56.383Z,10.15
2019-04-14T10:14:23.529Z,9.30
2019-04-14T10:16:51.522Z,9.43
2019-04-14T10:19:20.334Z,8.92
2019-04-14T10:21:50.327Z,9.04
2019-04-14T10:24:18.102Z,9.75
2019-04-14T10:26:46.129Z,10.53
2019-04-14T10:29:13.608Z,10.53
2019-04-14T10:31:41.132Z,9.96
2019-04-14T10:34:13.036Z,10.44
2019-04-14T10:36:42.251Z,10.67
2019-04-14T10:39:09.888Z,10.43
2019-04-14T10:41:39.729Z,10.33
2019-04-14T10:44:08.103Z,10.05
2019-04-14T10:46:35.615Z,10.33
2019-04-14T10:49:03.077Z,10.44
2019-04-14T10:51:33.865Z,10.06
2019-04-14T10:53:59.919Z,10.82
2019-04-14T10:56:27.432Z,10.27
2019-04-14T10:58:56.129Z,11.25
2019-04-14T11:01:24.163Z,10.86
2019-04-14T11:03:51.983Z,11.04
2019-04-14T11:06:33.548Z,11.31
2019-04-14T11:09:01.144Z,11.78
2019-04-14T11:11:30.384Z,12.02
2019-04-14T11:13:58.215Z,11.15
2019-04-14T11:16:26.306Z,11.79
2019-04-14T11:18:53.840Z,11.94
2019-04-14T11:21:22.833Z,12.28
2019-04-14T11:23:50.872Z,12.52
2019-04-14T11:26:19.267Z,11.83
2019-04-14T11:28:46.653Z,10.65
2019-04-14T11:31:16.430Z,10.21
2019-04-14T11:34:00.190Z,10.02
2019-04-14T11:36:45.681Z,10.24
2019-04-14T11:39:14.941Z,10.32
2019-04-14T11:41:43.720Z,10.39
2019-04-14T11:44:11.752Z,10.83
2019-04-14T11:46:39.799Z,10.59
2019-04-14T11:49:08.478Z,10.82
2019-04-14T11:51:36.462Z,10.99
2019-04-14T11:54:04.341Z,10.34
2019-04-14T11:56:32.315Z,11.18
2019-04-14T11:58:59.803Z,10.77
2019-04-14T12:01:46.299Z,10.46
2019-04-14T12:04:40.494Z,10.50
2019-04-14T12:07:18.738Z,10.25
2019-04-14T12:10:03.698Z,10.19
2019-04-14T12:12:32.018Z,9.99
2019-04-14T12:14:59.561Z,9.88
2019-04-14T12:17:27.505Z,10.28
2019-04-14T12:19:54.996Z,10.69
2019-04-14T12:22:22.934Z,10.70
2019-04-14T12:24:50.847Z,10.32
2019-04-14T12:27:18.352Z,10.26
2019-04-14T12:29:46.224Z,10.14
2019-04-14T12:32:17.242Z,10.59
2019-04-14T12:34:44.881Z,10.76
2019-04-14T12:37:12.836Z,10.25
2019-04-14T12:39:40.473Z,10.68
2019-04-14T12:42:36.592Z,10.47
2019-04-14T12:45:31.100Z,11.16
2019-04-14T12:48:20.776Z,11.13
2019-04-14T12:50:58.538Z,11.59
2019-04-14T12:53:26.175Z,11.61
2019-04-14T12:55:53.766Z,11.16
2019-04-14T12:58:28.895Z,11.54
2019-04-14T13:01:00.860Z,11.11
2019-04-14T13:03:32.181Z,10.72
2019-04-14T13:06:00.195Z,10.95
2019-04-14T13:08:29.098Z,11.04
2019-04-14T13:10:56.935Z,11.39
2019-04-14T13:13:25.467Z,11.01
2019-04-14T13:15:53.281Z,11.07
2019-04-14T13:18:24.135Z,11.25
2019-04-14T13:20:51.815Z,11.36
2019-04-14T13:23:19.858Z,11.71
2019-04-14T13:25:48.442Z,11.05
2019-04-14T13:28:15.996Z,11.79
2019-04-14T13:30:46.232Z,12.01
2019-04-14T13:33:13.712Z,11.67
2019-04-14T13:35:41.463Z,12.26
2019-04-14T13:38:10.254Z,12.30
2019-04-14T13:40:38.494Z,12.39
2019-04-14T13:43:06.432Z,12.06
2019-04-14T13:45:34.133Z,12.33
2019-04-14T13:48:01.608Z,11.65
2019-04-14T13:50:30.961Z,11.65
2019-04-14T13:52:58.556Z,11.02
2019-04-14T13:55:27.580Z,11.10
2019-04-14T13:57:55.103Z,10.70
2019-04-14T14:00:24.369Z,10.97
2019-04-14T14:02:52.364Z,10.96
2019-04-14T14:05:19.889Z,11.36
2019-04-14T14:07:47.409Z,11.06
2019-04-14T14:10:15.495Z,11.23
2019-04-14T14:12:59.152Z,11.10
2019-04-14T14:15:37.779Z,10.98
2019-04-14T14:18:40.252Z,10.81
2019-04-14T14:21:15.620Z,10.69
2019-04-14T14:23:54.660Z,10.25
2019-04-14T14:26:23.519Z,10.51
2019-04-14T14:28:51.014Z,10.56
2019-04-14T14:31:20.215Z,10.91
2019-04-14T14:33:48.394Z,10.72
2019-04-14T14:36:15.664Z,10.76
2019-04-14T14:38:43.596Z,10.43
2019-04-14T14:41:14.580Z,10.66
2019-04-14T14:43:42.205Z,10.66
2019-04-14T14:46:20.130Z,10.61
2019-04-14T14:48:55.056Z,10.63
2019-04-14T14:51:45.894Z,10.54
2019-04-14T14:54:12.970Z,10.66
2019-04-14T14:56:41.563Z,10.46
2019-04-14T14:59:10.763Z,10.11
2019-04-14T15:01:39.181Z,10.33
2019-04-14T15:04:07.151Z,10.00
2019-04-14T15:06:34.674Z,10.18
2019-04-14T15:09:02.621Z,10.20
2019-04-14T15:11:30.495Z,10.17
2019-04-14T15:13:58.130Z,10.55
2019-04-14T15:16:26.176Z,10.26
2019-04-14T15:18:54.429Z,10.23
2019-04-14T15:21:23.301Z,10.14
2019-04-14T15:23:51.091Z,9.89
2019-04-14T15:26:19.540Z,9.63
2019-04-14T15:28:47.153Z,9.56
2019-04-14T15:31:14.700Z,9.74
2019-04-14T15:33:43.449Z,9.80
2019-04-14T15:36:12.675Z,9.74
2019-04-14T15:38:42.529Z,9.77
2019-04-14T15:41:12.079Z,9.60
2019-04-14T15:43:43.892Z,9.34
2019-04-14T15:46:11.491Z,9.31
2019-04-14T15:48:40.109Z,9.29
2019-04-14T15:51:07.425Z,9.30
2019-04-14T15:53:38.131Z,9.17
2019-04-14T15:56:06.314Z,9.02
2019-04-14T15:58:53.475Z,8.91
2019-04-14T16:01:39.859Z,8.84
2019-04-14T16:04:16.366Z,8.79
2019-04-14T16:07:19.463Z,8.84
2019-04-14T16:10:01.559Z,8.77
2019-04-14T16:12:43.659Z,8.77
2019-04-14T16:15:33.484Z,8.72
2019-04-14T16:18:19.715Z,8.73
2019-04-14T16:20:47.586Z,8.71
2019-04-14T16:23:15.275Z,8.61
2019-04-14T16:25:48.255Z,8.63
2019-04-14T16:28:22.413Z,8.50
2019-04-14T16:31:23.367Z,8.49
2019-04-14T16:34:01.098Z,8.41
2019-04-14T16:36:28.484Z,8.43
2019-04-14T16:38:56.102Z,8.37
2019-04-14T16:41:23.935Z,8.37
2019-04-14T16:43:51.747Z,8.35
2019-04-14T16:46:20.345Z,8.36
2019-04-14T16:48:48.356Z,8.35
2019-04-14T16:51:22.698Z,8.29
2019-04-14T16:54:02.465Z,8.25
2019-04-14T16:56:52.141Z,8.21
2019-04-14T16:59:20.126Z,8.21
2019-04-14T17:01:48.911Z,8.23
2019-04-14T17:04:16.918Z,8.26
2019-04-14T17:06:44.448Z,8.20
2019-04-14T17:09:12.060Z,8.22
2019-04-14T17:11:40.328Z,8.23
2019-04-14T17:14:39.952Z,8.23
2019-04-14T17:17:27.603Z,8.14
2019-04-14T17:20:30.140Z,8.13
2019-04-14T17:23:15.708Z,8.01
2019-04-14T17:26:00.747Z,8.08
2019-04-14T17:28:53.728Z,8.03
2019-04-14T17:31:39.480Z,7.99
2019-04-14T17:34:11.399Z,7.98
2019-04-14T17:36:56.001Z,7.96
2019-04-14T17:39:44.128Z,7.90
2019-04-14T17:42:28.993Z,7.89
2019-04-14T17:45:15.928Z,7.90
2019-04-14T17:48:05.891Z,7.87
2019-04-14T17:50:55.807Z,7.87
2019-04-14T17:53:34.124Z,7.83
2019-04-14T17:56:24.329Z,7.83
2019-04-14T17:59:09.947Z,7.79
2019-04-14T18:01:46.632Z,7.79
2019-04-14T18:04:45.712Z,7.79
2019-04-14T18:07:21.193Z,7.77
2019-04-14T18:10:11.097Z,7.73
2019-04-14T18:12:57.620Z,7.67
2019-04-14T18:15:32.766Z,7.66
2019-04-14T18:18:18.725Z,7.63
2019-04-14T18:20:49.973Z,7.63
2019-04-14T18:23:17.721Z,7.58
2019-04-14T18:25:45.725Z,7.60
2019-04-14T18:28:35.989Z,7.59
2019-04-14T18:31:14.406Z,7.62
2019-04-14T18:34:19.757Z,7.56
2019-04-14T18:37:19.620Z,7.52
2019-04-14T18:40:05.338Z,7.48
2019-04-14T18:42:52.782Z,7.50
2019-04-14T18:45:29.407Z,7.46
2019-04-14T18:48:05.556Z,7.43
2019-04-14T18:50:53.065Z,7.44
2019-04-14T18:53:33.489Z,7.36
2019-04-14T18:56:09.510Z,7.35
2019-04-14T18:58:53.420Z,7.33
2019-04-14T19:01:30.769Z,7.30
2019-04-14T19:03:58.590Z,7.27
2019-04-14T19:06:26.674Z,7.23
2019-04-14T19:08:54.941Z,7.24
2019-04-14T19:11:49.338Z,7.26
2019-04-14T19:14:21.821Z,7.28
2019-04-14T19:16:54.831Z,7.30
2019-04-14T19:19:23.317Z,7.27
2019-04-14T19:21:51.569Z,7.24
2019-04-14T19:24:19.641Z,7.26
2019-04-14T19:26:47.256Z,7.21
2019-04-14T19:29:14.547Z,7.19
2019-04-14T19:31:42.110Z,7.21
2019-04-14T19:34:10.217Z,7.20
2019-04-14T19:36:39.168Z,7.19
2019-04-14T19:39:10.364Z,7.19
2019-04-14T19:41:39.044Z,7.21
2019-04-14T19:44:07.593Z,7.16
2019-04-14T19:46:35.384Z,7.09
2019-04-14T19:49:03.111Z,7.10
2019-04-14T19:51:37.266Z,7.08
2019-04-14T19:54:04.616Z,7.04
2019-04-14T19:56:32.653Z,7.02
2019-04-14T19:59:00.164Z,7.02
2019-04-14T20:01:27.759Z,6.93
2019-04-14T20:03:55.302Z,6.88
2019-04-14T20:06:23.489Z,6.89
2019-04-14T20:08:50.940Z,6.88
2019-04-14T20:11:19.115Z,6.83
2019-04-14T20:13:47.091Z,6.83
2019-04-14T20:16:32.629Z,6.80
2019-04-14T20:19:38.146Z,6.81
2019-04-14T20:22:18.204Z,6.82
2019-04-14T20:24:53.088Z,6.83
2019-04-14T20:27:37.390Z,6.83
2019-04-14T20:30:09.071Z,6.82
2019-04-14T20:32:39.634Z,6.72
2019-04-14T20:35:08.566Z,6.71
2019-04-14T20:37:37.110Z,6.64
2019-04-14T20:40:08.013Z,6.60
2019-04-14T20:42:36.315Z,6.57
2019-04-14T20:45:05.737Z,6.54
2019-04-14T20:47:33.762Z,6.55
2019-04-14T20:50:01.852Z,6.51
2019-04-14T20:52:30.192Z,6.49
2019-04-14T20:55:00.039Z,6.49
2019-04-14T20:57:27.752Z,6.45
2019-04-14T20:59:55.412Z,6.42
2019-04-14T21:02:42.631Z,6.42
2019-04-14T21:05:23.049Z,6.43
2019-04-14T21:08:13.085Z,6.40
2019-04-14T21:11:09.521Z,6.37
2019-04-14T21:14:02.502Z,6.36
2019-04-14T21:17:01.270Z,6.30
2019-04-14T21:19:38.299Z,6.28
2019-04-14T21:22:28.390Z,6.28
2019-04-14T21:25:20.952Z,6.24
2019-04-14T21:28:02.541Z,6.22
2019-04-14T21:30:35.897Z,6.15
2019-04-14T21:33:31.764Z,6.08
2019-04-14T21:36:18.652Z,6.02
2019-04-14T21:39:17.715Z,5.89
2019-04-14T21:41:47.608Z,5.86
2019-04-14T21:44:15.360Z,5.85
2019-04-14T21:46:42.867Z,5.76
2019-04-14T21:49:11.319Z,5.51
2019-04-14T21:51:56.787Z,5.32
2019-04-14T21:54:24.362Z,5.23
2019-04-14T21:57:13.432Z,5.10
2019-04-14T22:00:00.067Z,4.88
2019-04-14T22:02:57.180Z,4.75
2019-04-14T22:05:53.086Z,4.60
2019-04-14T22:08:25.581Z,4.52
2019-04-14T22:10:54.941Z,4.39
2019-04-14T22:13:23.545Z,4.28
2019-04-14T22:15:51.037Z,4.27
2019-04-14T22:18:19.005Z,4.18
2019-04-14T22:20:47.460Z,4.13
2019-04-14T22:23:16.220Z,4.23
2019-04-14T22:25:43.903Z,4.30
2019-04-14T22:28:11.647Z,4.35
2019-04-14T22:30:39.275Z,4.46
2019-04-14T22:33:06.772Z,4.43
2019-04-14T22:35:34.277Z,4.41
2019-04-14T22:38:02.087Z,4.45
2019-04-14T22:40:30.525Z,4.46
2019-04-14T22:42:58.833Z,4.44
2019-04-14T22:45:26.978Z,4.46
2019-04-14T22:47:55.986Z,4.46
2019-04-14T22:50:24.538Z,4.49
2019-04-14T22:52:52.038Z,4.51
2019-04-14T22:55:20.118Z,4.50
2019-04-14T22:57:48.338Z,4.52
2019-04-14T23:00:40.609Z,4.53
2019-04-14T23:03:26.325Z,4.52
2019-04-14T23:06:02.505Z,4.52
2019-04-14T23:08:52.721Z,4.51
2019-04-14T23:11:47.065Z,4.52
2019-04-14T23:14:46.317Z,4.52
2019-04-14T23:17:33.835Z,4.56
2019-04-14T23:20:14.170Z,4.51
2019-04-14T23:23:10.436Z,4.53
2019-04-14T23:25:38.246Z,4.55
2019-04-14T23:28:06.023Z,4.55
2019-04-14T23:30:36.810Z,4.53
2019-04-14T23:33:03.875Z,4.53
2019-04-14T23:35:31.510Z,4.57
2019-04-14T23:37:59.506Z,4.60
2019-04-14T23:40:27.248Z,4.60
2019-04-14T23:42:55.150Z,4.58
2019-04-14T23:45:23.172Z,4.56
2019-04-14T23:47:51.172Z,4.55
2019-04-14T23:50:19.063Z,4.61
2019-04-14T23:52:46.780Z,4.72
2019-04-14T23:55:14.278Z,4.73
2019-04-14T23:57:42.620Z,4.71
